Medburyville, Vermont
Current Conditions -  °F | °C
As of 6:04 PM on Wednesday 22 Oct 2014 (Local Time) from KDDH Reporting Station
Overcast Overcast  
Wind Chill:   Ceiling: 3100
Heat Index:   Visibility: 10mi
Dew Point:   Wind: 8mph
Humidity: 86%   Direction: 340°NNW
Pressure: 29.98"   Gusts: NA
Location:  42.883°N, 72.8981°W
Report Text: KDDH 222204Z AUTO 34007KT 10SM SCT011 OVC031 09/07 A2998 RMK AO2 T00940072
Loading
Personal Weather Stations






























Interactive Weather Map
Tropical Storm Tracking
New forecast layout! Learn more

10-Day Weather Forecast

Advertisements
Track Severe Weather on mobile